Time;durP1;ratioP1;P1;durP2;ratioP2;P2;SDS_P1;SDS_P2;PMS_P1;PMS_P2;Temp;Humidity;BMP_temperature;BMP_pressure;BME280_temperature;BME280_humidity;BME280_pressure;Samples;Min_cycle;Max_cycle;Signal;HPM_P1;HPM_P2
2022/09/23 00:02:09;;;;;;;6.30;5.80;;;8.20;99.90;;;-141.84;76.88;18570.22;5046297;28;20260;-61
2022/09/23 00:04:37;;;;;;;7.77;6.07;;;8.20;99.90;;;-141.84;77.21;18602.75;5049829;28;20232;-61
2022/09/23 00:07:05;;;;;;;7.33;6.70;;;8.20;99.90;;;-141.84;77.33;18558.03;5044580;28;20225;-60
2022/09/23 00:09:33;;;;;;;7.07;6.37;;;8.10;99.90;;;-141.84;77.92;18517.41;5042969;28;20225;-59
2022/09/23 00:12:04;;;;;;;7.20;6.50;;;8.10;99.90;;;-141.84;78.18;18553.97;5051572;28;20229;-61
2022/09/23 00:14:38;;;;;;;7.70;6.50;;;8.00;99.90;;;-141.84;78.46;18517.41;5048149;28;20213;-61
2022/09/23 00:17:06;;;;;;;7.37;6.40;;;8.00;99.90;;;-141.84;78.60;18511.31;5044479;28;20229;-60
2022/09/23 00:19:35;;;;;;;7.27;6.57;;;8.00;99.90;;;-141.84;78.99;18509.28;5042899;28;20218;-61
2022/09/23 00:22:03;;;;;;;6.93;6.23;;;7.90;99.90;;;-141.84;79.17;18521.47;5046066;28;20300;-60
2022/09/23 00:24:32;;;;;;;7.27;6.50;;;7.90;99.90;;;-141.84;79.19;18531.63;5048816;28;20267;-62
2022/09/23 00:27:01;;;;;;;8.93;7.77;;;7.90;99.90;;;-141.84;78.75;18511.31;5040754;28;20221;-63
2022/09/23 00:29:30;;;;;;;7.07;6.37;;;7.90;99.90;;;-141.84;78.52;18535.69;5045857;28;20263;-61
2022/09/23 00:31:58;;;;;;;7.20;6.60;;;7.90;99.90;;;-141.84;78.29;18527.56;5042306;28;20233;-60
2022/09/23 00:34:26;;;;;;;6.83;6.23;;;7.90;99.90;;;-141.84;78.24;18519.44;5047521;28;20236;-60
2022/09/23 00:36:54;;;;;;;8.10;6.20;;;7.90;99.90;;;-141.84;77.09;18515.38;5042425;28;20201;-60
2022/09/23 00:39:23;;;;;;;7.40;6.57;;;8.00;99.90;;;-141.84;77.11;18543.81;5044838;28;20225;-61
2022/09/23 00:41:51;;;;;;;7.00;6.30;;;8.00;99.90;;;-141.84;76.97;18531.63;5044762;28;20222;-64
2022/09/23 00:44:45;;;;;;;6.10;5.60;;;7.90;99.90;;;-141.84;77.77;18509.28;5045653;28;20220;-66
2022/09/23 00:47:23;;;;;;;6.97;6.27;;;7.90;99.90;;;-141.84;78.14;18513.34;5048016;28;20233;-66
2022/09/23 00:50:02;;;;;;;6.90;6.20;;;7.80;99.90;;;-141.84;78.92;18474.75;5049839;28;20229;-66
2022/09/23 00:52:31;;;;;;;7.20;6.07;;;7.80;99.90;;;-141.84;79.15;18450.38;5043112;28;20578;-65
2022/09/23 00:55:05;;;;;;;7.00;6.40;;;7.70;99.90;;;-141.84;78.11;18501.16;5039986;28;20205;-64
2022/09/23 00:57:36;;;;;;;6.60;6.00;;;7.70;99.90;;;-141.84;77.44;18484.91;5045773;28;20217;-66
2022/09/23 01:00:08;;;;;;;7.17;6.43;;;7.80;99.90;;;-141.84;78.18;18505.22;5044401;28;20689;-66
2022/09/23 01:02:37;;;;;;;7.10;6.43;;;7.70;99.90;;;-141.84;78.64;18464.59;5039385;28;20229;-66
2022/09/23 01:05:07;;;;;;;7.70;6.50;;;7.70;99.90;;;-141.84;79.03;18476.78;5048804;28;20229;-65
2022/09/23 01:07:35;;;;;;;7.00;6.40;;;7.70;99.90;;;-141.84;79.40;18464.59;5047032;28;20252;-64
2022/09/23 01:10:06;;;;;;;7.40;6.40;;;7.60;99.90;;;-141.84;79.84;18444.28;5042425;28;20267;-67
2022/09/23 01:12:58;;;;;;;7.23;6.63;;;7.60;99.90;;;-141.84;79.70;18438.19;5048271;28;20259;-65
2022/09/23 01:15:39;;;;;;;7.37;6.70;;;7.50;99.90;;;-141.84;79.11;18452.41;5047873;28;20653;-65
2022/09/23 01:18:25;;;;;;;7.07;6.37;;;7.60;99.90;;;-141.84;78.72;18452.41;5045635;28;20233;-66
2022/09/23 01:21:05;;;;;;;6.90;6.27;;;7.60;99.90;;;-141.84;79.01;18456.47;5044124;28;20232;-64
2022/09/23 01:24:28;;;;;;;6.47;5.87;;;7.60;99.90;;;-141.84;79.26;18456.47;5047542;28;20225;-65
2022/09/23 01:27:16;;;;;;;7.37;6.67;;;7.60;99.90;;;-141.84;78.71;18438.19;5020387;28;20229;-64
2022/09/23 01:30:28;;;;;;;7.10;6.47;;;7.60;99.90;;;-141.84;78.38;18468.66;5038836;28;20225;-66
2022/09/23 01:33:13;;;;;;;7.07;6.47;;;7.60;99.90;;;-141.84;79.42;18421.91;5034205;28;20270;-66
2022/09/23 01:35:53;;;;;;;7.73;6.90;;;7.60;99.90;;;-141.84;79.64;18432.09;5047120;28;20213;-66
2022/09/23 01:38:34;;;;;;;7.23;6.63;;;7.60;99.90;;;-141.84;79.63;18423.94;5039155;28;20271;-65
2022/09/23 01:41:15;;;;;;;7.83;6.53;;;7.50;99.90;;;-141.84;80.25;18407.69;5049926;28;20232;-65
2022/09/23 01:43:57;;;;;;;7.50;6.70;;;7.50;99.90;;;-141.84;80.32;18377.22;5042245;28;20271;-67
2022/09/23 01:46:32;;;;;;;7.10;6.37;;;7.40;99.90;;;-141.84;80.48;18428.03;5047237;28;20242;-63
2022/09/23 01:49:13;;;;;;;7.30;6.70;;;7.40;99.90;;;-141.84;80.56;18407.69;5047311;28;20661;-59
2022/09/23 01:51:48;;;;;;;7.77;7.00;;;7.40;99.90;;;-141.84;80.46;18352.84;5036903;28;20212;-61
2022/09/23 01:54:25;;;;;;;6.90;6.30;;;7.30;99.90;;;-141.84;80.62;18389.41;5041730;28;20692;-59
2022/09/23 01:57:00;;;;;;;7.70;7.00;;;7.40;99.90;;;-141.84;80.54;18387.38;5041695;28;20233;-59
2022/09/23 01:59:36;;;;;;;7.57;6.90;;;7.40;99.90;;;-141.84;80.42;18389.41;5044690;28;20217;-59
2022/09/23 02:02:14;;;;;;;7.80;7.00;;;7.30;99.90;;;-141.84;80.60;18391.44;5047442;28;20223;-60
2022/09/23 02:04:53;;;;;;;7.60;6.90;;;7.30;99.90;;;-141.84;80.06;18350.81;5038179;28;20225;-61
2022/09/23 02:07:31;;;;;;;7.63;6.87;;;7.30;99.90;;;-141.84;79.70;18401.59;5042130;28;20236;-60
2022/09/23 02:10:10;;;;;;;7.87;6.90;;;7.30;99.90;;;-141.84;80.20;18383.31;5046981;28;20212;-62
2022/09/23 02:12:44;;;;;;;7.37;6.70;;;7.30;99.90;;;-141.84;80.10;18365.03;5042088;28;20247;-60
2022/09/23 02:15:18;;;;;;;7.70;6.90;;;7.30;99.90;;;-141.84;80.32;18350.81;5044634;28;20270;-61
2022/09/23 02:17:53;;;;;;;7.37;6.67;;;7.30;99.90;;;-141.84;78.70;18387.38;5045464;28;20221;-60
2022/09/23 02:20:30;;;;;;;7.23;6.63;;;7.40;99.90;;;-141.84;79.21;18375.19;5046906;28;20221;-60
2022/09/23 02:23:07;;;;;;;7.53;6.83;;;7.40;99.90;;;-141.84;79.63;18346.75;5052403;28;20221;-60
2022/09/23 02:25:49;;;;;;;7.60;6.90;;;7.40;99.90;;;-141.84;79.98;18367.06;5047397;28;20236;-60
2022/09/23 02:28:27;;;;;;;7.30;6.70;;;7.40;99.90;;;-141.84;79.84;18377.22;5050568;28;20202;-59
2022/09/23 02:31:07;;;;;;;6.87;6.27;;;7.30;99.90;;;-141.84;80.23;18350.81;5048267;28;20220;-61
2022/09/23 02:33:42;;;;;;;7.20;6.50;;;7.30;99.90;;;-141.84;80.63;18371.13;5047733;28;20214;-59
2022/09/23 02:36:24;;;;;;;8.47;7.03;;;7.30;99.90;;;-141.84;80.68;18373.16;5032264;28;20221;-61
2022/09/23 02:38:57;;;;;;;7.13;6.53;;;7.20;99.90;;;-141.84;80.40;18310.19;5027690;28;20544;-59
2022/09/23 02:41:35;;;;;;;8.93;6.70;;;7.20;99.90;;;-141.84;79.54;18377.22;5026567;28;20225;-60
2022/09/23 02:44:08;;;;;;;8.53;7.00;;;7.20;99.90;;;-141.84;79.65;18363.00;5026664;28;20297;-60
2022/09/23 02:46:37;;;;;;;7.33;6.67;;;7.20;99.90;;;-141.84;80.30;18322.38;5024769;28;20658;-60
2022/09/23 02:49:13;;;;;;;7.67;6.97;;;7.20;99.90;;;-141.84;80.62;18330.50;5027642;28;20222;-60
2022/09/23 02:51:44;;;;;;;7.70;6.90;;;7.10;99.90;;;-141.84;80.67;18324.41;5029824;28;20205;-59
2022/09/23 02:54:18;;;;;;;7.70;7.00;;;7.10;99.90;;;-141.84;80.69;18342.69;5026971;28;20265;-60
2022/09/23 02:56:48;;;;;;;8.17;7.37;;;7.10;99.90;;;-141.84;79.78;18326.44;5027735;28;20214;-60
2022/09/23 02:59:19;;;;;;;7.87;6.73;;;7.20;99.90;;;-141.84;80.07;18314.25;5024311;28;20221;-60
2022/09/23 03:02:12;;;;;;;8.27;7.10;;;7.10;99.90;;;-141.84;80.50;18328.47;5028889;28;20237;-60
2022/09/23 03:04:55;;;;;;;7.20;6.50;;;7.10;99.90;;;-141.84;80.25;18310.19;5024673;28;20249;-60
2022/09/23 03:07:35;;;;;;;7.47;6.77;;;7.10;99.90;;;-141.84;80.35;18314.25;5030252;28;20237;-60
2022/09/23 03:10:15;;;;;;;8.60;7.00;;;7.10;99.90;;;-141.84;80.69;18314.25;5024717;28;20224;-60
2022/09/23 03:13:04;;;;;;;7.53;6.83;;;7.10;99.90;;;-141.84;81.16;18285.81;5027872;28;20209;-61
2022/09/23 03:15:40;;;;;;;8.30;7.50;;;7.00;99.90;;;-141.84;81.43;18322.38;5025041;28;20676;-59
2022/09/23 03:18:18;;;;;;;7.47;6.80;;;7.00;99.90;;;-141.84;80.63;18312.22;5028876;28;20221;-60
2022/09/23 03:20:52;;;;;;;7.30;6.60;;;7.00;99.90;;;-141.84;80.51;18295.97;5029904;28;20217;-61
2022/09/23 03:23:28;;;;;;;8.57;7.10;;;7.00;99.90;;;-141.84;81.57;18283.78;5027355;28;20287;-60
2022/09/23 03:26:04;;;;;;;8.07;7.23;;;6.90;99.90;;;-141.84;81.85;18277.69;5029338;28;20229;-59
2022/09/23 03:28:35;;;;;;;7.73;6.93;;;6.90;99.90;;;-141.84;81.87;18271.59;5026263;28;20234;-60
2022/09/23 03:31:05;;;;;;;7.87;7.17;;;6.90;99.90;;;-141.84;81.80;18300.03;5027212;28;20214;-60
2022/09/23 03:33:38;;;;;;;7.87;7.17;;;6.80;99.90;;;-141.84;81.24;18295.97;5023897;28;20214;-60
2022/09/23 03:39:05;;;;;;;8.90;7.70;;;6.90;99.90;;;-141.84;80.86;18310.19;5011750;28;20233;-61
2022/09/23 03:41:42;;;;;;;7.57;6.87;;;6.90;99.90;;;-141.84;81.08;18237.06;5026294;28;20631;-60
2022/09/23 03:44:11;;;;;;;9.37;7.50;;;6.90;99.90;;;-141.84;81.11;18271.59;5024051;28;20235;-61
2022/09/23 03:46:41;;;;;;;7.87;7.07;;;6.80;99.90;;;-141.84;80.85;18263.47;5025892;28;20575;-61
2022/09/23 03:49:16;;;;;;;9.93;7.30;;;6.90;99.90;;;-141.84;79.98;18289.88;5023257;28;20222;-61
2022/09/23 03:51:44;;;;;;;7.30;6.60;;;6.90;99.90;;;-141.84;79.72;18312.22;5023831;28;20217;-60
2022/09/23 03:54:14;;;;;;;7.70;7.00;;;6.90;99.90;;;-141.84;80.58;18253.31;5031127;28;20237;-62
2022/09/23 03:56:43;;;;;;;7.90;7.20;;;6.90;99.90;;;-141.84;79.89;18287.84;5026509;28;20229;-60
2022/09/23 03:59:10;;;;;;;7.10;6.50;;;6.90;99.90;;;-141.84;80.23;18298.00;5023935;28;20234;-60
2022/09/23 04:01:40;;;;;;;8.07;7.27;;;6.80;99.90;;;-141.84;80.71;18283.78;5023922;28;20605;-61
2022/09/23 04:04:09;;;;;;;8.50;7.00;;;6.80;99.90;;;-141.84;80.94;18275.66;5026284;28;20354;-61
2022/09/23 04:06:37;;;;;;;8.10;7.07;;;6.80;99.90;;;-141.84;80.56;18269.56;5026710;28;20225;-60
2022/09/23 04:09:05;;;;;;;8.87;7.90;;;6.80;99.90;;;-141.84;80.56;18285.81;5027155;28;20245;-60
2022/09/23 04:11:34;;;;;;;7.17;6.47;;;6.80;99.90;;;-141.84;81.17;18283.78;5025663;28;20240;-60
2022/09/23 04:14:03;;;;;;;8.07;7.37;;;6.70;99.90;;;-141.84;81.06;18253.31;5026193;28;20226;-60
2022/09/23 04:16:31;;;;;;;7.90;7.20;;;6.70;99.90;;;-141.84;80.75;18255.34;5023816;28;20295;-61
2022/09/23 04:18:59;;;;;;;8.07;6.83;;;6.70;99.90;;;-141.84;80.94;18226.88;5026641;28;20292;-59
2022/09/23 04:21:29;;;;;;;8.83;7.53;;;6.70;99.90;;;-141.84;81.39;18253.31;5048926;28;20217;-60
2022/09/23 04:23:57;;;;;;;7.27;6.67;;;6.60;99.90;;;-141.84;81.32;18235.00;5045572;28;20225;-61
2022/09/23 04:26:25;;;;;;;9.57;7.50;;;6.60;99.90;;;-141.84;81.55;18212.66;5043283;28;20230;-60
2022/09/23 04:28:55;;;;;;;8.27;7.47;;;6.50;99.90;;;-141.84;81.42;18245.19;5048491;28;20287;-60
2022/09/23 04:31:24;;;;;;;7.77;6.93;;;6.50;99.90;;;-141.84;81.48;18222.81;5048526;28;20237;-60
2022/09/23 04:33:53;;;;;;;8.27;7.50;;;6.50;99.90;;;-141.84;81.79;18239.09;5051647;28;20630;-60
2022/09/23 04:36:22;;;;;;;7.63;6.93;;;6.50;99.90;;;-141.84;82.21;18218.75;5042934;28;20221;-60
2022/09/23 04:38:51;;;;;;;8.20;7.40;;;6.50;99.90;;;-141.84;81.64;18239.09;5047907;28;20625;-61
2022/09/23 04:41:19;;;;;;;8.43;7.53;;;6.50;99.90;;;-141.84;80.63;18222.81;5047825;28;20228;-59
2022/09/23 04:43:50;;;;;;;7.90;7.20;;;6.60;99.90;;;-141.84;80.74;18230.94;5044174;28;20227;-66
2022/09/23 04:46:20;;;;;;;8.73;7.27;;;6.60;99.90;;;-141.84;81.13;18230.94;5039613;28;20264;-65
2022/09/23 04:48:48;;;;;;;7.80;6.57;;;6.50;99.90;;;-141.84;81.62;18228.91;5046018;28;20213;-65
2022/09/23 04:51:19;;;;;;;7.53;6.77;;;6.50;99.90;;;-141.84;81.60;18224.84;5047063;28;20228;-66
2022/09/23 04:53:50;;;;;;;7.97;7.17;;;6.50;99.90;;;-141.84;82.05;18224.84;5042511;28;20214;-65
2022/09/23 04:56:21;;;;;;;8.53;7.23;;;6.50;99.90;;;-141.84;82.23;18202.50;5040897;28;20236;-66
2022/09/23 04:58:50;;;;;;;7.90;7.10;;;6.40;99.90;;;-141.84;82.24;18196.41;5042961;28;20247;-65
2022/09/23 05:01:23;;;;;;;7.83;6.90;;;6.40;99.90;;;-141.84;81.92;18204.53;5042505;28;20208;-66
2022/09/23 05:03:53;;;;;;;7.97;7.00;;;6.50;99.90;;;-141.84;81.63;18210.63;5043339;28;20204;-59
2022/09/23 05:06:22;;;;;;;7.60;6.90;;;6.50;99.90;;;-141.84;80.90;18208.59;5046860;28;20565;-61
2022/09/23 05:08:53;;;;;;;9.13;6.53;;;6.60;99.90;;;-141.84;80.28;18198.44;5042385;28;20229;-65
2022/09/23 05:11:22;;;;;;;7.17;6.47;;;6.60;99.90;;;-141.84;80.50;18218.75;5044651;28;20294;-66
2022/09/23 05:13:53;;;;;;;8.00;7.20;;;6.60;99.90;;;-141.84;80.72;18192.34;5044738;28;20218;-65
2022/09/23 05:16:25;;;;;;;7.63;6.93;;;6.60;99.90;;;-141.84;80.13;18247.22;5051021;28;20237;-65
2022/09/23 05:18:54;;;;;;;8.00;6.73;;;6.70;99.90;;;-141.84;79.63;18237.06;5043266;28;20656;-65
2022/09/23 05:21:26;;;;;;;8.23;7.20;;;6.80;99.90;;;-141.84;79.82;18287.84;5042015;28;20294;-66
2022/09/23 05:23:59;;;;;;;8.67;7.30;;;6.80;99.90;;;-141.84;80.10;18265.50;5044769;28;20758;-65
2022/09/23 05:26:30;;;;;;;7.33;6.63;;;6.80;99.90;;;-141.84;80.01;18247.22;5046243;28;20224;-66
2022/09/23 05:28:59;;;;;;;8.10;7.37;;;6.80;99.90;;;-141.84;80.18;18196.41;5037393;28;20620;-66
2022/09/23 05:31:30;;;;;;;8.80;7.10;;;6.80;99.90;;;-141.84;79.29;18251.28;5045091;28;20280;-67
2022/09/23 05:34:00;;;;;;;7.23;6.53;;;6.90;99.90;;;-141.84;78.38;18269.56;5043418;28;20347;-66
2022/09/23 05:36:31;;;;;;;8.00;6.40;;;7.00;99.90;;;-141.84;78.57;18285.81;5020583;28;20613;-65
2022/09/23 05:39:06;;;;;;;7.33;6.63;;;7.10;99.90;;;-141.84;78.73;18273.63;5025745;28;20233;-66
2022/09/23 05:41:37;;;;;;;7.70;6.90;;;7.10;99.90;;;-141.84;79.29;18259.41;5024952;28;20726;-65
2022/09/23 05:44:05;;;;;;;8.57;7.63;;;7.20;99.90;;;-141.84;79.38;18261.44;5028201;28;20272;-65
2022/09/23 05:46:35;;;;;;;7.30;6.60;;;7.20;99.90;;;-141.84;79.26;18247.22;5030405;28;20221;-65
2022/09/23 05:49:04;;;;;;;7.60;6.70;;;7.30;99.90;;;-141.84;79.26;18298.00;5022474;28;20226;-65
2022/09/23 05:51:34;;;;;;;7.03;6.33;;;7.30;99.90;;;-141.84;79.14;18273.63;5028068;28;20221;-65
2022/09/23 05:54:04;;;;;;;6.77;5.87;;;7.40;99.90;;;-141.84;78.97;18300.03;5027227;28;20320;-66
2022/09/23 05:56:34;;;;;;;6.60;5.50;;;7.50;99.90;;;-141.84;78.48;18306.13;5029166;28;20232;-66
2022/09/23 05:59:04;;;;;;;6.87;5.67;;;7.50;99.90;;;-141.84;77.81;18306.13;5035630;28;20231;-65
2022/09/23 06:01:37;;;;;;;5.80;5.30;;;7.60;99.90;;;-141.84;76.93;18314.25;5035794;28;20308;-66
2022/09/23 06:04:12;;;;;;;6.27;5.63;;;7.70;99.90;;;-141.84;75.99;18358.94;5035529;28;20186;-65
2022/09/23 06:06:42;;;;;;;6.00;5.40;;;7.90;99.90;;;-141.84;76.38;18358.94;5035932;28;20196;-65
2022/09/23 06:09:13;;;;;;;5.23;4.67;;;8.00;99.90;;;-141.84;75.17;18379.25;5034651;28;20772;-66
2022/09/23 06:11:42;;;;;;;6.93;5.20;;;8.00;99.90;;;-141.84;74.42;18411.75;5032953;28;20861;-65
2022/09/23 06:14:13;;;;;;;5.67;4.97;;;8.20;99.90;;;-141.84;74.51;18428.03;5035513;28;20602;-67
2022/09/23 06:16:43;;;;;;;5.50;4.97;;;8.30;99.90;;;-141.84;74.14;18444.28;5033289;28;20284;-67
2022/09/23 06:19:11;;;;;;;6.63;5.07;;;8.40;99.90;;;-141.84;73.63;18407.69;5034907;28;20206;-66
2022/09/23 06:21:40;;;;;;;4.90;4.40;;;8.40;99.90;;;-141.84;73.52;18464.59;5035030;28;20606;-66
2022/09/23 06:24:09;;;;;;;5.13;4.70;;;8.50;99.90;;;-141.84;72.92;18491.00;5034889;28;20233;-65
2022/09/23 06:26:41;;;;;;;5.40;4.90;;;8.60;99.90;;;-141.84;73.11;18501.16;5035092;28;20317;-67
2022/09/23 06:29:11;;;;;;;4.57;4.17;;;8.70;99.90;;;-141.84;73.06;18499.13;5034826;28;20238;-66
2022/09/23 06:31:40;;;;;;;4.73;4.33;;;8.80;99.90;;;-141.84;72.16;18535.69;5034755;28;20233;-67
2022/09/23 06:34:12;;;;;;;4.40;4.00;;;9.00;99.90;;;-141.84;70.26;18598.69;5034538;28;20285;-66
2022/09/23 06:36:43;;;;;;;5.37;4.30;;;9.20;99.90;;;-141.84;70.38;18623.06;5035340;28;20190;-67
2022/09/23 06:39:14;;;;;;;4.20;3.87;;;9.30;99.90;;;-141.84;70.23;18627.13;5034043;28;20576;-67
2022/09/23 06:41:43;;;;;;;4.33;3.93;;;9.50;99.90;;;-141.84;69.58;18677.91;5033926;28;20228;-68
2022/09/23 06:44:12;;;;;;;4.20;3.87;;;9.60;99.90;;;-141.84;68.99;18730.75;5034199;28;20233;-66
2022/09/23 06:46:40;;;;;;;3.80;3.50;;;9.80;99.90;;;-141.84;66.14;18887.19;5034394;28;20580;-66
2022/09/23 06:49:10;;;;;;;5.57;3.80;;;10.10;99.90;;;-141.84;64.96;18990.81;5034769;28;20584;-67
2022/09/23 06:51:39;;;;;;;4.67;3.60;;;10.30;99.90;;;-141.84;65.91;18980.66;5035176;28;20342;-66
2022/09/23 06:54:07;;;;;;;4.93;4.40;;;10.50;99.90;;;-141.84;65.00;19011.13;5034400;28;20233;-66
2022/09/23 06:56:35;;;;;;;4.33;3.60;;;10.50;99.90;;;-141.84;63.77;19131.03;5034494;28;20237;-66
2022/09/23 06:59:07;;;;;;;3.90;3.60;;;10.60;99.90;;;-141.84;63.41;19112.75;5034628;28;20284;-65
2022/09/23 07:01:35;;;;;;;3.97;3.60;;;10.60;99.90;;;-141.84;64.08;19098.50;5034176;28;20698;-65
2022/09/23 07:04:03;;;;;;;4.63;3.47;;;10.50;99.90;;;-141.84;64.04;19145.25;5034610;28;20205;-66
2022/09/23 07:06:33;;;;;;;5.43;3.77;;;10.60;99.90;;;-141.84;63.96;19141.19;5034459;28;20210;-65
2022/09/23 07:09:02;;;;;;;4.67;3.57;;;10.70;99.90;;;-141.84;64.15;19165.56;5032584;28;20284;-66
2022/09/23 07:11:30;;;;;;;4.80;4.30;;;10.90;99.90;;;-141.84;63.35;19194.03;5032779;28;20226;-66
2022/09/23 07:13:58;;;;;;;3.90;3.47;;;10.90;99.90;;;-141.84;62.67;19265.13;5033208;28;20284;-66
2022/09/23 07:16:26;;;;;;;4.10;3.70;;;11.00;99.90;;;-141.84;63.09;19236.69;5033112;28;20234;-69
2022/09/23 07:18:55;;;;;;;4.17;3.70;;;11.10;99.90;;;-141.84;62.29;19326.09;5033780;28;20205;-65
2022/09/23 07:21:23;;;;;;;3.70;3.40;;;11.20;99.90;;;-141.84;62.83;19320.00;5032681;28;20228;-69
2022/09/23 07:23:54;;;;;;;5.63;3.70;;;11.30;99.90;;;-141.84;61.56;19431.78;5032689;28;20225;-69
2022/09/23 07:26:22;;;;;;;4.50;4.10;;;11.30;99.90;;;-141.84;61.53;19397.22;5032858;28;20229;-66
2022/09/23 07:28:55;;;;;;;4.27;3.73;;;11.40;99.90;;;-141.84;61.95;19419.59;5032730;28;20226;-66
2022/09/23 07:31:24;;;;;;;5.07;3.83;;;11.60;99.90;;;-141.84;61.37;19468.34;5032722;28;20288;-68
2022/09/23 07:34:06;;;;;;;5.00;3.47;;;11.60;99.90;;;-141.84;61.50;19423.66;5032976;28;20191;-65
2022/09/23 07:36:36;;;;;;;5.23;3.60;;;11.70;99.90;;;-141.84;61.38;19498.84;5032909;28;20194;-66
2022/09/23 07:39:06;;;;;;;5.80;3.73;;;11.80;99.90;;;-141.84;60.51;19541.50;5032258;28;20225;-66
2022/09/23 07:41:34;;;;;;;3.73;2.93;;;11.90;99.90;;;-141.84;60.19;19565.91;5032469;28;20234;-66
2022/09/23 07:44:04;;;;;;;4.70;3.13;;;11.90;99.90;;;-141.84;59.50;19693.94;5032559;28;20606;-66
2022/09/23 07:46:35;;;;;;;3.10;2.80;;;12.10;99.90;;;-141.84;59.50;19657.34;5032385;28;20225;-68
2022/09/23 07:49:05;;;;;;;3.80;3.47;;;12.10;99.90;;;-141.84;59.13;19708.16;5032809;28;20217;-66
2022/09/23 07:51:37;;;;;;;3.90;3.10;;;12.00;99.90;;;-141.84;59.22;19740.69;5033066;28;20209;-67
2022/09/23 07:54:10;;;;;;;3.73;3.23;;;12.30;99.90;;;-141.84;58.45;19811.81;5032212;28;20226;-68
2022/09/23 07:56:39;;;;;;;3.97;3.57;;;12.20;99.90;;;-141.84;58.92;19779.28;5032289;28;20642;-66
2022/09/23 07:59:10;;;;;;;3.50;3.20;;;12.30;99.90;;;-141.84;58.52;19817.91;5032277;28;20237;-67
2022/09/23 08:01:41;;;;;;;3.70;3.30;;;12.40;99.90;;;-141.84;58.73;19793.50;5032186;28;20229;-63
2022/09/23 08:04:13;;;;;;;3.50;3.20;;;12.40;99.90;;;-141.84;58.25;19817.91;5032211;28;20193;-69
2022/09/23 08:06:42;;;;;;;3.47;3.17;;;12.50;99.90;;;-141.84;58.14;19817.91;5032880;28;20187;-69
2022/09/23 08:09:13;;;;;;;3.67;3.37;;;12.60;99.90;;;-141.84;58.14;19856.53;5031588;28;20311;-70
2022/09/23 08:11:41;;;;;;;3.57;3.20;;;12.60;99.90;;;-141.84;58.44;19868.72;5031954;28;20284;-68
2022/09/23 08:14:12;;;;;;;4.35;3.50;;;12.60;99.90;;;-141.84;58.37;19876.84;5031832;28;20237;-68
2022/09/23 08:16:40;;;;;;;3.87;3.37;;;12.70;99.90;;;-141.84;58.55;19842.28;5031919;28;20232;-74
2022/09/23 08:19:09;;;;;;;4.60;3.60;;;12.70;99.90;;;-141.84;58.44;19878.88;5031473;28;20711;-70
2022/09/23 08:21:39;;;;;;;3.60;3.20;;;12.80;99.90;;;-141.84;58.47;19899.19;5032246;28;20210;-74
2022/09/23 08:24:07;;;;;;;3.77;3.37;;;12.90;99.90;;;-141.84;58.29;19891.06;5031583;28;20241;-74
2022/09/23 08:26:36;;;;;;;4.22;3.40;;;12.90;99.90;;;-141.84;58.14;19911.41;5031773;28;20245;-68
2022/09/23 08:29:05;;;;;;;3.53;2.93;;;13.00;99.90;;;-141.84;58.12;19943.91;5031655;28;20263;-68
2022/09/23 08:31:33;;;;;;;6.75;3.50;;;13.10;99.90;;;-141.84;57.49;19994.72;5031757;28;20228;-68
2022/09/23 08:34:02;;;;;;;4.53;3.23;;;13.30;99.90;;;-141.84;55.95;20069.94;5031774;28;20214;-68
2022/09/23 08:36:31;;;;;;;3.63;3.27;;;13.50;99.90;;;-141.84;55.26;20120.75;5032107;28;20205;-66
2022/09/23 08:39:00;;;;;;;4.13;3.00;;;13.50;99.90;;;-141.84;55.39;20118.69;5031255;28;20229;-67
2022/09/23 08:41:39;;;;;;;5.00;2.80;;;13.60;99.90;;;-141.84;55.19;20159.34;5031463;28;20234;-70
2022/09/23 08:44:16;;;;;;;3.10;2.80;;;13.80;99.90;;;-141.84;54.87;20175.63;5031221;28;20252;-70
2022/09/23 08:46:53;;;;;;;5.37;3.60;;;14.10;99.90;;;-141.84;54.10;20220.34;5031415;28;20252;-76
2022/09/23 08:49:28;;;;;;;5.32;3.00;;;14.20;99.90;;;-141.84;54.08;20307.72;5030849;28;20670;-75
2022/09/23 08:51:59;;;;;;;6.90;4.43;;;14.30;99.90;;;-141.84;53.14;20287.41;5031906;28;20265;-75
2022/09/23 08:54:31;;;;;;;7.90;3.80;;;14.40;99.90;;;-141.84;53.28;20305.69;5031360;28;20214;-75
2022/09/23 08:57:05;;;;;;;4.53;3.00;;;14.40;99.90;;;-141.84;53.05;20326.03;5031142;28;20283;-75
2022/09/23 08:59:41;;;;;;;6.43;3.40;;;14.50;99.90;;;-141.84;53.24;20313.84;5030903;28;20222;-76
2022/09/23 09:02:18;;;;;;;4.35;3.50;;;14.60;99.90;;;-141.84;52.51;20328.06;5031249;28;20237;-68
2022/09/23 09:04:53;;;;;;;4.65;2.90;;;14.60;99.90;;;-141.84;52.69;20326.03;5030753;28;20225;-68
2022/09/23 09:07:28;;;;;;;5.38;3.15;;;14.60;99.90;;;-141.84;52.37;20389.03;5031221;28;20225;-69
2022/09/23 09:10:15;;;;;;;6.25;3.47;;;14.70;99.90;;;-141.84;52.43;20370.75;5030556;28;20221;-76
2022/09/23 09:12:47;;;;;;;6.63;3.22;;;14.80;99.90;;;-141.84;52.12;20452.06;5031808;28;20189;-77
2022/09/23 09:15:20;;;;;;;4.75;3.33;;;14.90;99.90;;;-141.84;52.29;20411.41;5030836;28;20229;-80
2022/09/23 09:18:01;;;;;;;3.72;3.33;;;15.00;99.90;;;-141.84;52.36;20423.59;5030781;28;20706;-79
2022/09/23 09:20:56;;;;;;;5.32;3.05;;;15.10;99.90;;;-141.84;52.61;20429.69;5030451;28;20258;-69
2022/09/23 09:23:34;;;;;;;4.57;3.22;;;15.10;99.90;;;-141.84;52.33;20447.97;5030576;28;20279;-70
2022/09/23 09:26:04;;;;;;;3.42;3.10;;;15.20;99.90;;;-141.84;52.25;20502.88;5031081;28;20236;-67
2022/09/23 09:28:40;;;;;;;5.57;3.17;;;15.20;99.90;;;-141.84;51.64;20506.94;5030945;28;20240;-68
2022/09/23 09:31:25;;;;;;;3.53;3.22;;;15.40;99.90;;;-141.84;50.36;20563.84;5030305;28;20182;-69
2022/09/23 09:34:02;;;;;;;4.68;3.20;;;15.60;99.90;;;-141.84;49.21;20602.47;5031416;28;20210;-65
2022/09/23 09:36:44;;;;;;;4.45;3.42;;;15.80;99.90;;;-141.84;48.05;20671.59;5011358;28;20284;-66
2022/09/23 09:39:14;;;;;;;3.83;3.08;;;15.90;99.90;;;-141.84;48.11;20635.00;5010887;28;20674;-62
2022/09/23 09:41:49;;;;;;;5.15;3.47;;;16.00;99.90;;;-141.84;48.96;20655.31;5011072;28;20235;-63
2022/09/23 09:44:27;;;;;;;4.75;3.28;;;15.90;99.90;;;-141.84;48.01;20663.47;5011035;28;20230;-62
2022/09/23 09:47:20;;;;;;;4.03;3.70;;;16.10;99.90;;;-141.84;47.51;20724.44;5010944;28;20225;-62
2022/09/23 09:49:59;;;;;;;3.50;3.00;;;16.10;99.90;;;-141.84;48.03;20681.75;5010775;28;20638;-63
2022/09/23 09:52:30;;;;;;;4.38;3.70;;;16.20;99.90;;;-141.84;48.32;20756.97;5011212;28;20762;-62
2022/09/23 09:55:25;;;;;;;7.97;3.55;;;16.30;99.90;;;-141.84;47.79;20728.50;5011155;28;20561;-61
2022/09/23 09:58:00;;;;;;;4.50;3.63;;;16.40;99.90;;;-141.84;47.83;20710.22;5011492;28;20207;-61
2022/09/23 10:00:42;;;;;;;5.43;3.40;;;16.40;99.90;;;-141.84;48.08;20736.63;5011185;28;20264;-63
2022/09/23 10:03:39;;;;;;;3.78;3.47;;;16.40;99.90;;;-141.84;47.78;20842.34;5027344;28;20299;-62
2022/09/23 10:06:18;;;;;;;5.05;3.78;;;16.60;99.90;;;-141.84;47.21;20878.94;5042282;28;20238;-61
2022/09/23 10:09:18;;;;;;;5.20;3.45;;;16.60;99.90;;;-141.84;46.88;20850.47;5050556;28;20235;-63
2022/09/23 10:12:14;;;;;;;4.90;3.80;;;16.80;99.90;;;-141.84;46.53;20840.31;5026421;28;20773;-60
2022/09/23 10:14:42;;;;;;;4.03;3.72;;;16.90;99.90;;;-141.84;47.40;20836.25;5050378;28;20240;-62
2022/09/23 10:17:20;;;;;;;8.07;3.63;;;16.80;99.90;;;-141.84;47.64;20838.28;5050524;28;20279;-60
2022/09/23 10:19:59;;;;;;;4.05;3.63;;;16.80;99.90;;;-141.84;47.17;20811.84;5050317;28;20319;-61
2022/09/23 10:22:33;;;;;;;4.10;3.80;;;16.90;99.90;;;-141.84;46.65;20846.41;5049833;28;20577;-61
2022/09/23 10:25:08;;;;;;;3.38;3.08;;;16.90;99.90;;;-141.84;47.33;20822.03;5049926;28;20676;-61
2022/09/23 10:27:37;;;;;;;4.00;3.50;;;16.80;99.90;;;-141.84;48.83;20777.28;5050828;28;20186;-63
2022/09/23 10:30:21;;;;;;;3.55;3.22;;;16.70;99.90;;;-141.84;46.98;20815.91;5050120;28;20229;-61
2022/09/23 10:32:53;;;;;;;4.50;3.50;;;16.80;99.90;;;-141.84;46.84;20820.00;5050411;28;20225;-60
2022/09/23 10:35:24;;;;;;;4.45;3.20;;;16.80;99.90;;;-141.84;46.59;20870.81;5050223;28;20256;-61
2022/09/23 10:37:54;;;;;;;4.35;3.95;;;17.00;99.90;;;-141.84;46.18;20850.47;5050184;28;20717;-61
2022/09/23 10:46:38;;;;;;;4.53;4.13;;;16.90;99.90;;;-141.84;45.68;20907.41;5051940;28;20255;-63